Tango — WDG9982 — position and weather

sailwx.info

Track history (hours):
 
Tides and Currents Weather Stations Pressure Air Temp Water Temp Dewpoint Dewpoint Depression Visibility Wind Speed Wind Dir Waves Ship Positions

Tango

Owner: Harrington, John E, Redwood City, CA. More information available from US FCC via Universal Licensing System and Coast Guard Vessel Documentation Center.

Last reported at 2018-Jun-24 04:58 UTC. Time now 2018-Jun-25 09:39 UTC.
Position N 37°40' W 122°19'.

Length 15 m.

Type: Sailing vessel. MMSI: 367593180.

Date/timePositionNaut miles runAvg speedWind from/ knotsBaromVisibWave heightAir tempDewpointWater temp
2018-Jun-24 04:58N 37°40' W 122°19'1 2.1
2018-Jun-24 04:22N 37°41' W 122°20'2 3.6
2018-Jun-24 03:56N 37°42' W 122°20'1 2.1
2018-Jun-24 03:28N 37°43' W 122°21'1 2.5
2018-Jun-24 02:59N 37°44' W 122°21'1 3.0
2018-Jun-24 02:30N 37°46' W 122°22'1 2.0
2018-Jun-24 02:00N 37°47' W 122°22'1 1.9
2018-Jun-24 01:29N 37°47' W 122°23'1 1.1
2018-Jun-24 01:00N 37°48' W 122°23'1 1.5
2018-Jun-24 00:29N 37°49' W 122°24'0 0.2
2018-Jun-23 23:58N 37°49' W 122°24'1 1.3
2018-Jun-23 23:29N 37°49' W 122°24'1 1.6
2018-Jun-23 23:00N 37°49' W 122°25'1 1.7
2018-Jun-23 22:29N 37°49' W 122°27'1 1.8
2018-Jun-23 21:58N 37°49' W 122°28'1 1.5
2018-Jun-23 21:30N 37°49' W 122°29'0 0.8
2018-Jun-23 20:58N 37°49' W 122°29'1 1.4
2018-Jun-23 20:30N 37°49' W 122°28'1 1.9
2018-Jun-23 19:58N 37°49' W 122°27'1 1.9
2018-Jun-23 19:25N 37°49' W 122°26'1 1.8
2018-Jun-23 19:00N 37°49' W 122°25'1 1.8
2018-Jun-23 18:23N 37°48' W 122°23'1 2.2
2018-Jun-23 17:59N 37°48' W 122°23'1 2.2
2018-Jun-23 17:24N 37°46' W 122°22'1 2.1
2018-Jun-23 16:52N 37°45' W 122°22'1 2.1
2018-Jun-23 16:27N 37°45' W 122°21'1 2.0
2018-Jun-23 15:50N 37°43' W 122°21'1 2.1
2018-Jun-23 15:30N 37°43' W 122°21'1 1.9
2018-Jun-23 14:57N 37°42' W 122°20'1 1.9
2018-Jun-23 14:26N 37°41' W 122°20'1 0.1
2018-Jun-22 23:14N 37°40' W 122°19'1 4.2
2018-Jun-22 22:56N 37°41' W 122°20'3 5.8
2018-Jun-22 22:30N 37°43' W 122°21'3 5.8
2018-Jun-22 22:00N 37°46' W 122°22'2 4.1
2018-Jun-22 21:30N 37°48' W 122°23'1 2.4
2018-Jun-22 21:00N 37°49' W 122°24'2 4.5
2018-Jun-22 20:30N 37°49' W 122°27'2 3.8
2018-Jun-22 20:00N 37°49' W 122°29'3 5.8
2018-Jun-22 19:30N 37°49' W 122°25'3 6.2
2018-Jun-22 19:00N 37°47' W 122°23'4 7.5
2018-Jun-22 18:30N 37°43' W 122°21'  
Track history (hours):
 
Tides and Currents Weather Stations Pressure Air Temp Water Temp Dewpoint Dewpoint Depression Visibility Wind Speed Wind Dir Waves Ship Positions

Tango

Owner: Harrington, John E, Redwood City, CA. More information available from US FCC via Universal Licensing System and Coast Guard Vessel Documentation Center.

Last reported at 2018-Jun-24 04:58 UTC. Time now 2018-Jun-25 09:39 UTC.
Position N 37°40' W 122°19'.

Length 15 m.

Type: Sailing vessel. MMSI: 367593180.

Date/timePositionNaut miles runAvg speedWind from/ knotsBaromVisibWave heightAir tempDewpointWater temp
2018-Jun-24 04:58N 37°40' W 122°19'1 2.1
2018-Jun-24 04:22N 37°41' W 122°20'2 3.6
2018-Jun-24 03:56N 37°42' W 122°20'1 2.1
2018-Jun-24 03:28N 37°43' W 122°21'1 2.5
2018-Jun-24 02:59N 37°44' W 122°21'1 3.0
2018-Jun-24 02:30N 37°46' W 122°22'1 2.0
2018-Jun-24 02:00N 37°47' W 122°22'1 1.9
2018-Jun-24 01:29N 37°47' W 122°23'1 1.1
2018-Jun-24 01:00N 37°48' W 122°23'1 1.5
2018-Jun-24 00:29N 37°49' W 122°24'0 0.2
2018-Jun-23 23:58N 37°49' W 122°24'1 1.3
2018-Jun-23 23:29N 37°49' W 122°24'1 1.6
2018-Jun-23 23:00N 37°49' W 122°25'1 1.7
2018-Jun-23 22:29N 37°49' W 122°27'1 1.8
2018-Jun-23 21:58N 37°49' W 122°28'1 1.5
2018-Jun-23 21:30N 37°49' W 122°29'0 0.8
2018-Jun-23 20:58N 37°49' W 122°29'1 1.4
2018-Jun-23 20:30N 37°49' W 122°28'1 1.9
2018-Jun-23 19:58N 37°49' W 122°27'1 1.9
2018-Jun-23 19:25N 37°49' W 122°26'1 1.8
2018-Jun-23 19:00N 37°49' W 122°25'1 1.8
2018-Jun-23 18:23N 37°48' W 122°23'1 2.2
2018-Jun-23 17:59N 37°48' W 122°23'1 2.2
2018-Jun-23 17:24N 37°46' W 122°22'1 2.1
2018-Jun-23 16:52N 37°45' W 122°22'1 2.1
2018-Jun-23 16:27N 37°45' W 122°21'1 2.0
2018-Jun-23 15:50N 37°43' W 122°21'1 2.1
2018-Jun-23 15:30N 37°43' W 122°21'1 1.9
2018-Jun-23 14:57N 37°42' W 122°20'1 1.9
2018-Jun-23 14:26N 37°41' W 122°20'1 0.1
2018-Jun-22 23:14N 37°40' W 122°19'1 4.2
2018-Jun-22 22:56N 37°41' W 122°20'3 5.8
2018-Jun-22 22:30N 37°43' W 122°21'3 5.8
2018-Jun-22 22:00N 37°46' W 122°22'2 4.1
2018-Jun-22 21:30N 37°48' W 122°23'1 2.4
2018-Jun-22 21:00N 37°49' W 122°24'2 4.5
2018-Jun-22 20:30N 37°49' W 122°27'2 3.8
2018-Jun-22 20:00N 37°49' W 122°29'3 5.8
2018-Jun-22 19:30N 37°49' W 122°25'3 6.2
2018-Jun-22 19:00N 37°47' W 122°23'4 7.5
2018-Jun-22 18:30N 37°43' W 122°21'  

Dump ship's entire track history